createdAt,value
2019-03-28T00:02:28.273Z,56.18
2019-03-28T00:04:56.742Z,55.28
2019-03-28T00:07:25.279Z,50.55
2019-03-28T00:09:53.786Z,55.55
2019-03-28T00:12:22.269Z,54.73
2019-03-28T00:14:50.766Z,59.33
2019-03-28T00:17:19.235Z,65.67
2019-03-28T00:19:47.714Z,66.90
2019-03-28T00:22:17.853Z,65.97
2019-03-28T00:24:56.984Z,56.63
2019-03-28T00:27:25.448Z,62.73
2019-03-28T00:29:54.338Z,59.80
2019-03-28T00:32:23.016Z,65.70
2019-03-28T00:34:51.485Z,66.20
2019-03-28T00:37:19.979Z,70.83
2019-03-28T00:39:48.450Z,72.80
2019-03-28T00:42:17.064Z,65.67
2019-03-28T00:44:45.537Z,68.92
2019-03-28T00:47:14.011Z,66.33
2019-03-28T00:49:43.194Z,63.10
2019-03-28T00:52:11.765Z,64.95
2019-03-28T00:54:40.228Z,61.25
2019-03-28T00:57:08.709Z,61.08
2019-03-28T00:59:37.177Z,54.50
2019-03-28T01:02:05.643Z,54.03
2019-03-28T01:04:34.130Z,56.18
2019-03-28T01:07:02.627Z,50.83
2019-03-28T01:09:31.385Z,49.38
2019-03-28T01:12:00.074Z,52.03
2019-03-28T01:14:28.554Z,55.20
2019-03-28T01:16:57.029Z,54.33
2019-03-28T01:19:25.528Z,53.20
2019-03-28T01:21:53.995Z,54.48
2019-03-28T01:24:22.494Z,49.15
2019-03-28T01:26:57.140Z,45.90
2019-03-28T01:29:21.171Z,55.05
2019-03-28T01:31:49.670Z,48.30
2019-03-28T01:34:18.155Z,51.73
2019-03-28T01:36:46.650Z,50.05
2019-03-28T01:39:15.110Z,50.80
2019-03-28T01:41:43.581Z,47.00
2019-03-28T01:44:12.054Z,49.53
2019-03-28T01:46:40.721Z,46.90
2019-03-28T01:49:09.185Z,43.63
2019-03-28T01:51:37.664Z,45.90
2019-03-28T01:54:06.144Z,46.10
2019-03-28T01:56:34.696Z,47.83
2019-03-28T01:59:03.238Z,54.23
2019-03-28T02:01:31.707Z,53.85
2019-03-28T02:04:00.202Z,50.67
2019-03-28T02:06:28.666Z,49.33
2019-03-28T02:08:57.132Z,50.40
2019-03-28T02:11:25.627Z,41.85
2019-03-28T02:13:54.127Z,43.92
2019-03-28T02:16:22.635Z,45.08
2019-03-28T02:18:51.087Z,45.15
2019-03-28T02:21:19.590Z,43.20
2019-03-28T02:23:48.085Z,94.72
2019-03-28T02:26:16.588Z,51.98
2019-03-28T02:28:45.051Z,43.83
2019-03-28T02:31:13.556Z,44.08
2019-03-28T02:33:42.020Z,47.30
2019-03-28T02:36:10.497Z,45.52
2019-03-28T02:38:38.990Z,48.58
2019-03-28T02:41:08.667Z,51.08
2019-03-28T02:43:37.429Z,48.73
2019-03-28T02:46:05.934Z,53.40
2019-03-28T02:48:34.395Z,50.35
2019-03-28T02:51:03.749Z,51.18
2019-03-28T02:53:32.704Z,47.62
2019-03-28T02:56:01.206Z,56.23
2019-03-28T02:58:29.668Z,49.05
2019-03-28T03:00:58.165Z,47.23
2019-03-28T03:03:26.660Z,50.75
2019-03-28T03:05:55.136Z,47.23
2019-03-28T03:08:23.625Z,54.77
2019-03-28T03:10:52.122Z,54.77
2019-03-28T03:13:20.603Z,46.15
2019-03-28T03:15:49.068Z,45.08
2019-03-28T03:18:21.233Z,46.45
2019-03-28T03:20:47.808Z,44.85
2019-03-28T03:23:16.324Z,44.53
2019-03-28T03:25:44.791Z,44.53
2019-03-28T03:28:13.268Z,42.78
2019-03-28T03:30:41.753Z,44.95
2019-03-28T03:33:10.212Z,42.27
2019-03-28T03:35:38.689Z,43.52
2019-03-28T03:38:07.166Z,43.40
2019-03-28T03:40:35.662Z,47.05
2019-03-28T03:43:04.197Z,41.77
2019-03-28T03:45:32.681Z,51.00
2019-03-28T03:48:01.146Z,42.65
2019-03-28T03:50:30.281Z,37.15
2019-03-28T03:52:58.930Z,38.15
2019-03-28T03:55:27.404Z,39.70
2019-03-28T03:58:13.291Z,42.23
2019-03-28T04:00:32.437Z,44.23
2019-03-28T04:03:02.984Z,44.40
2019-03-28T04:05:32.102Z,47.27
2019-03-28T04:08:00.760Z,36.23
2019-03-28T04:10:29.302Z,36.55
2019-03-28T04:12:57.960Z,35.92
2019-03-28T04:15:26.489Z,54.55
2019-03-28T04:17:55.115Z,64.90
2019-03-28T04:20:24.870Z,66.33
2019-03-28T04:22:53.809Z,52.58
2019-03-28T04:25:22.359Z,48.45
2019-03-28T04:27:50.918Z,51.18
2019-03-28T04:30:19.563Z,40.17
2019-03-28T04:32:48.085Z,47.50
2019-03-28T04:35:16.606Z,67.12
2019-03-28T04:37:45.171Z,50.17
2019-03-28T04:40:14.032Z,73.70
2019-03-28T04:42:45.557Z,66.80
2019-03-28T04:45:13.003Z,46.35
2019-03-28T04:47:41.604Z,51.20
2019-03-28T04:50:10.580Z,58.65
2019-03-28T04:52:39.159Z,70.75
2019-03-28T04:55:08.177Z,82.12
2019-03-28T04:57:36.696Z,79.47
2019-03-28T05:00:09.609Z,68.65
2019-03-28T05:02:38.277Z,50.58
2019-03-28T05:05:07.774Z,54.13
2019-03-28T05:07:36.295Z,61.13
2019-03-28T05:10:08.099Z,59.67
2019-03-28T05:12:36.725Z,49.93
2019-03-28T05:15:10.324Z,59.70
2019-03-28T05:17:39.006Z,47.78
2019-03-28T05:20:08.116Z,58.68
2019-03-28T05:22:36.764Z,80.77
2019-03-28T05:25:07.256Z,59.08
2019-03-28T05:27:35.899Z,147.98
2019-03-28T05:30:08.834Z,58.50
2019-03-28T05:32:37.350Z,52.23
2019-03-28T05:35:07.922Z,47.98
2019-03-28T05:37:36.713Z,49.70
2019-03-28T05:40:07.413Z,54.55
2019-03-28T05:42:35.931Z,52.10
2019-03-28T05:45:06.731Z,45.50
2019-03-28T05:47:35.491Z,46.88
2019-03-28T05:50:05.451Z,62.10
2019-03-28T05:52:33.947Z,45.43
2019-03-28T05:55:05.247Z,45.15
2019-03-28T05:57:32.642Z,41.45
2019-03-28T06:00:01.126Z,52.08
2019-03-28T06:02:29.616Z,51.28
2019-03-28T06:04:58.081Z,51.05
2019-03-28T06:07:26.645Z,50.78
2019-03-28T06:09:55.125Z,50.40
2019-03-28T06:12:23.679Z,59.65
2019-03-28T06:14:52.157Z,56.80
2019-03-28T06:17:20.659Z,77.20
2019-03-28T06:19:50.102Z,82.65
2019-03-28T06:22:18.671Z,94.92
2019-03-28T06:24:47.144Z,59.27
2019-03-28T06:27:15.624Z,54.93
2019-03-28T06:29:44.090Z,48.33
2019-03-28T06:32:12.576Z,51.35
2019-03-28T06:34:41.051Z,61.63
2019-03-28T06:37:09.537Z,63.75
2019-03-28T06:39:38.057Z,50.95
2019-03-28T06:42:06.553Z,67.30
2019-03-28T06:44:35.037Z,65.80
2019-03-28T06:47:03.518Z,66.25
2019-03-28T06:49:31.997Z,99.55
2019-03-28T06:52:00.465Z,83.05
2019-03-28T06:54:28.974Z,87.78
2019-03-28T06:56:57.444Z,75.97
2019-03-28T06:59:36.778Z,143.52
2019-03-28T07:01:56.213Z,236.30
2019-03-28T07:04:25.997Z,138.77
2019-03-28T07:06:54.488Z,140.57
2019-03-28T07:09:22.982Z,142.98
2019-03-28T07:11:51.493Z,126.70
2019-03-28T07:14:19.978Z,152.30
2019-03-28T07:16:48.463Z,106.70
2019-03-28T07:19:17.055Z,118.90
2019-03-28T07:21:45.601Z,81.40
2019-03-28T07:24:14.116Z,96.15
2019-03-28T07:26:42.607Z,103.72
2019-03-28T07:29:11.173Z,95.07
2019-03-28T07:31:40.512Z,100.58
2019-03-28T07:34:09.160Z,101.75
2019-03-28T07:36:37.709Z,89.37
2019-03-28T07:39:07.438Z,81.05
2019-03-28T07:41:35.918Z,69.90
2019-03-28T07:44:04.693Z,72.25
2019-03-28T07:46:33.200Z,84.50
2019-03-28T07:49:01.755Z,76.30
2019-03-28T07:51:30.253Z,104.63
2019-03-28T07:53:58.754Z,95.05
2019-03-28T07:56:27.249Z,86.08
2019-03-28T07:58:55.767Z,95.62
2019-03-28T08:01:24.315Z,67.15
2019-03-28T08:03:52.805Z,65.83
2019-03-28T08:06:21.319Z,60.63
2019-03-28T08:08:49.807Z,58.23
2019-03-28T08:11:18.410Z,71.10
2019-03-28T08:13:46.953Z,74.65
2019-03-28T08:16:15.454Z,66.02
2019-03-28T08:18:43.953Z,95.87
2019-03-28T08:21:12.434Z,83.42
2019-03-28T08:23:40.956Z,158.95
2019-03-28T08:26:09.780Z,101.90
2019-03-28T08:28:38.415Z,95.60
2019-03-28T08:31:06.915Z,54.80
2019-03-28T08:33:37.801Z,53.73
2019-03-28T08:36:06.539Z,71.65
2019-03-28T08:38:38.073Z,92.62
2019-03-28T08:41:07.255Z,60.17
2019-03-28T08:43:36.169Z,58.87
2019-03-28T08:46:04.816Z,61.35
2019-03-28T08:48:33.396Z,65.25
2019-03-28T08:51:01.961Z,76.57
2019-03-28T08:53:30.447Z,75.28
2019-03-28T08:55:58.942Z,83.42
2019-03-28T08:58:27.463Z,95.77
2019-03-28T09:00:55.942Z,68.02
2019-03-28T09:03:24.510Z,92.97
2019-03-28T09:05:53.036Z,108.70
2019-03-28T09:08:21.526Z,79.85
2019-03-28T09:10:50.029Z,92.75
2019-03-28T09:13:18.604Z,86.00
2019-03-28T09:15:47.128Z,84.00
2019-03-28T09:18:15.614Z,87.60
2019-03-28T09:20:44.145Z,103.92
2019-03-28T09:23:12.626Z,76.35
2019-03-28T09:25:41.146Z,89.15
2019-03-28T09:28:09.656Z,108.97
2019-03-28T09:30:48.143Z,128.38
2019-03-28T09:33:10.499Z,112.52
2019-03-28T09:35:39.118Z,120.37
2019-03-28T09:38:07.836Z,118.33
2019-03-28T09:40:36.324Z,84.72
2019-03-28T09:43:05.346Z,52.45
2019-03-28T09:45:36.618Z,71.45
2019-03-28T09:48:05.269Z,58.25
2019-03-28T09:50:33.813Z,77.55
2019-03-28T09:53:02.401Z,53.98
2019-03-28T09:55:30.927Z,52.17
2019-03-28T09:57:59.422Z,54.70
2019-03-28T10:00:27.904Z,51.55
2019-03-28T10:02:56.404Z,44.05
2019-03-28T10:05:24.891Z,44.00
2019-03-28T10:07:53.395Z,48.55
2019-03-28T10:10:21.945Z,52.95
2019-03-28T10:12:50.461Z,48.90
2019-03-28T10:15:19.112Z,51.95
2019-03-28T10:17:47.600Z,36.40
2019-03-28T10:20:16.166Z,34.80
2019-03-28T10:22:44.658Z,36.45
2019-03-28T10:25:14.581Z,35.00
2019-03-28T10:27:43.173Z,39.98
2019-03-28T10:30:12.607Z,29.25
2019-03-28T10:32:41.258Z,31.23
2019-03-28T10:35:11.337Z,28.45
2019-03-28T10:37:39.820Z,46.35
2019-03-28T10:40:08.574Z,47.93
2019-03-28T10:42:37.121Z,30.27
2019-03-28T10:45:07.784Z,23.42
2019-03-28T10:47:36.272Z,34.08
2019-03-28T10:50:06.351Z,20.27
2019-03-28T10:52:34.836Z,27.55
2019-03-28T10:55:03.518Z,29.00
2019-03-28T10:57:32.429Z,21.20
2019-03-28T11:00:00.979Z,30.55
2019-03-28T11:02:29.491Z,44.13
2019-03-28T11:04:58.003Z,38.92
2019-03-28T11:07:26.489Z,41.35
2019-03-28T11:09:56.270Z,31.97
2019-03-28T11:12:24.715Z,45.45
2019-03-28T11:14:53.225Z,54.27
2019-03-28T11:17:21.892Z,66.62
2019-03-28T11:19:50.575Z,82.45
2019-03-28T11:22:19.059Z,41.88
2019-03-28T11:24:47.596Z,41.63
2019-03-28T11:27:16.080Z,64.72
2019-03-28T11:29:44.600Z,351.30
2019-03-28T11:32:13.191Z,123.00
2019-03-28T11:34:41.707Z,43.30
2019-03-28T11:37:24.972Z,28.12
2019-03-28T11:39:40.436Z,56.48
2019-03-28T11:42:09.055Z,39.40
2019-03-28T11:44:37.550Z,43.02
2019-03-28T11:47:06.039Z,38.60
2019-03-28T11:49:34.564Z,60.03
2019-03-28T11:52:03.049Z,81.10
2019-03-28T11:54:31.534Z,91.87
2019-03-28T11:57:00.116Z,31.87
2019-03-28T11:59:28.605Z,44.90
2019-03-28T12:02:02.054Z,44.55
2019-03-28T12:04:27.397Z,30.55
2019-03-28T12:06:55.913Z,28.95
2019-03-28T12:09:25.969Z,23.83
2019-03-28T12:11:54.479Z,18.90
2019-03-28T12:14:23.032Z,18.65
2019-03-28T12:16:51.532Z,19.12
2019-03-28T12:19:20.018Z,17.30
2019-03-28T12:21:48.497Z,28.42
2019-03-28T12:24:17.012Z,25.77
2019-03-28T12:26:45.499Z,19.82
2019-03-28T12:29:14.041Z,27.67
2019-03-28T12:31:42.558Z,30.00
2019-03-28T12:34:11.039Z,32.73
2019-03-28T12:36:39.528Z,44.45
2019-03-28T12:39:08.291Z,59.27
2019-03-28T12:41:36.863Z,72.30
2019-03-28T12:44:05.346Z,99.87
2019-03-28T12:46:33.868Z,126.35
2019-03-28T12:49:02.622Z,89.77
2019-03-28T12:51:31.118Z,84.00
2019-03-28T12:53:59.631Z,31.85
2019-03-28T12:56:28.114Z,32.63
2019-03-28T12:58:56.617Z,49.93
2019-03-28T13:01:25.097Z,28.47
2019-03-28T13:03:53.609Z,30.12
2019-03-28T13:06:24.150Z,19.80
2019-03-28T13:08:52.667Z,22.13
2019-03-28T13:11:21.190Z,27.22
2019-03-28T13:13:49.697Z,30.75
2019-03-28T13:16:18.184Z,43.75
2019-03-28T13:18:46.697Z,22.32
2019-03-28T13:21:15.183Z,19.10
2019-03-28T13:23:43.685Z,23.65
2019-03-28T13:26:12.168Z,22.35
2019-03-28T13:28:40.684Z,18.07
2019-03-28T13:31:09.179Z,37.70
2019-03-28T13:33:37.698Z,20.97
2019-03-28T13:36:06.269Z,32.63
2019-03-28T13:38:34.750Z,16.45
2019-03-28T13:41:03.305Z,27.52
2019-03-28T13:43:31.777Z,23.98
2019-03-28T13:46:00.925Z,19.07
2019-03-28T13:48:29.451Z,106.15
2019-03-28T13:50:57.944Z,34.53
2019-03-28T13:53:38.890Z,41.25
2019-03-28T13:55:57.700Z,45.88
2019-03-28T13:58:26.191Z,64.45
2019-03-28T14:00:56.217Z,38.13
2019-03-28T14:03:24.986Z,18.62
2019-03-28T14:05:53.481Z,19.37
2019-03-28T14:08:21.958Z,6.65
2019-03-28T14:10:50.472Z,6.65
2019-03-28T14:13:18.948Z,6.45
2019-03-28T14:15:47.457Z,7.97
2019-03-28T14:18:15.958Z,8.88
2019-03-28T14:20:44.456Z,7.78
2019-03-28T14:23:12.949Z,9.60
2019-03-28T14:25:41.419Z,9.43
2019-03-28T14:28:09.913Z,10.95
2019-03-28T14:30:39.628Z,21.57
2019-03-28T14:33:11.550Z,17.10
2019-03-28T14:35:38.683Z,13.35
2019-03-28T14:38:07.214Z,11.90
2019-03-28T14:40:35.675Z,8.70
2019-03-28T14:43:06.711Z,12.63
2019-03-28T14:45:35.813Z,10.10
2019-03-28T14:48:06.844Z,11.25
2019-03-28T14:50:36.695Z,14.30
2019-03-28T14:53:05.817Z,15.18
2019-03-28T14:55:35.343Z,23.07
2019-03-28T14:58:06.713Z,20.77
2019-03-28T15:00:47.308Z,20.85
2019-03-28T15:03:25.545Z,22.70
2019-03-28T15:05:46.833Z,27.35
2019-03-28T15:08:15.397Z,34.50
2019-03-28T15:10:43.992Z,106.07
2019-03-28T15:13:12.495Z,68.65
2019-03-28T15:15:40.983Z,29.25
2019-03-28T15:18:09.521Z,619.80
2019-03-28T15:20:38.034Z,392.45
2019-03-28T15:23:06.611Z,155.12
2019-03-28T15:25:35.094Z,63.55
2019-03-28T15:28:03.617Z,121.40
2019-03-28T15:30:32.112Z,75.30
2019-03-28T15:33:00.625Z,72.30
2019-03-28T15:35:29.186Z,49.08
2019-03-28T15:37:57.699Z,38.05
2019-03-28T15:40:26.253Z,38.42
2019-03-28T15:42:54.768Z,56.20
2019-03-28T15:45:23.269Z,57.25
2019-03-28T15:47:52.261Z,62.95
2019-03-28T15:50:20.831Z,66.42
2019-03-28T15:52:49.319Z,90.83
2019-03-28T15:55:17.821Z,63.85
2019-03-28T15:57:46.339Z,46.65
2019-03-28T16:00:15.467Z,56.30
2019-03-28T16:02:44.058Z,42.98
2019-03-28T16:05:12.652Z,71.67
2019-03-28T16:07:41.166Z,45.90
2019-03-28T16:10:10.490Z,33.90
2019-03-28T16:12:39.078Z,50.70
2019-03-28T16:15:08.304Z,60.58
2019-03-28T16:17:36.814Z,66.42
2019-03-28T16:20:06.455Z,65.37
2019-03-28T16:22:34.949Z,50.05
2019-03-28T16:25:04.140Z,46.95
2019-03-28T16:27:32.634Z,42.90
2019-03-28T16:30:01.145Z,47.70
2019-03-28T16:32:29.669Z,57.73
2019-03-28T16:34:58.326Z,56.77
2019-03-28T16:37:27.693Z,58.52
2019-03-28T16:39:56.451Z,56.02
2019-03-28T16:42:26.486Z,73.65
2019-03-28T16:44:54.999Z,62.08
2019-03-28T16:47:24.754Z,60.25
2019-03-28T16:49:53.278Z,88.72
2019-03-28T16:52:21.774Z,104.47
2019-03-28T16:54:50.293Z,89.17
2019-03-28T16:57:19.216Z,89.52
2019-03-28T16:59:48.277Z,79.22
2019-03-28T17:02:16.802Z,87.78
2019-03-28T17:04:45.288Z,93.12
2019-03-28T17:07:14.879Z,95.85
2019-03-28T17:09:43.442Z,97.15
2019-03-28T17:12:11.955Z,104.07
2019-03-28T17:14:40.478Z,98.15
2019-03-28T17:17:09.032Z,100.45
2019-03-28T17:19:37.510Z,110.42
2019-03-28T17:22:09.332Z,112.25
2019-03-28T17:24:36.229Z,123.62
2019-03-28T17:27:04.797Z,120.20
2019-03-28T17:29:33.316Z,134.87
2019-03-28T17:32:01.808Z,138.97
2019-03-28T17:34:35.236Z,145.60
2019-03-28T17:37:00.629Z,151.32
2019-03-28T17:39:29.156Z,146.15
2019-03-28T17:41:57.919Z,150.72
2019-03-28T17:44:26.556Z,147.82
2019-03-28T17:46:55.052Z,148.05
2019-03-28T17:49:23.602Z,151.72
2019-03-28T17:51:52.095Z,146.75
2019-03-28T17:54:20.652Z,155.60
2019-03-28T17:56:49.247Z,173.90
2019-03-28T17:59:17.778Z,182.47
2019-03-28T18:01:46.643Z,353.65
2019-03-28T18:04:22.823Z,289.93
2019-03-28T18:06:45.490Z,253.98
2019-03-28T18:09:13.949Z,267.87
2019-03-28T18:11:42.751Z,248.38
2019-03-28T18:14:11.240Z,277.27
2019-03-28T18:16:39.738Z,277.07
2019-03-28T18:19:08.251Z,279.85
2019-03-28T18:21:36.823Z,284.05
2019-03-28T18:24:05.329Z,278.10
2019-03-28T18:26:33.920Z,299.10
2019-03-28T18:29:03.442Z,286.45
2019-03-28T18:31:32.030Z,280.98
2019-03-28T18:34:00.550Z,276.42
2019-03-28T18:36:29.105Z,281.08
2019-03-28T18:38:57.645Z,290.05
2019-03-28T18:41:26.146Z,287.00
2019-03-28T18:43:54.673Z,283.77
2019-03-28T18:46:23.165Z,285.45
2019-03-28T18:48:51.683Z,289.40
2019-03-28T18:51:20.237Z,321.73
2019-03-28T18:53:48.771Z,311.52
2019-03-28T18:56:17.251Z,322.63
2019-03-28T18:58:45.770Z,355.23
2019-03-28T19:01:14.264Z,362.82
2019-03-28T19:03:42.814Z,361.12
2019-03-28T19:06:14.687Z,385.60
2019-03-28T19:08:41.601Z,385.73
2019-03-28T19:11:10.211Z,394.57
2019-03-28T19:13:39.654Z,400.70
2019-03-28T19:16:08.284Z,378.18
2019-03-28T19:18:36.791Z,406.37
2019-03-28T19:21:05.380Z,409.50
2019-03-28T19:23:33.876Z,409.27
2019-03-28T19:26:02.485Z,410.67
2019-03-28T19:28:30.980Z,409.30
2019-03-28T19:30:59.491Z,412.75
2019-03-28T19:33:29.003Z,415.25
2019-03-28T19:36:01.336Z,430.90
2019-03-28T19:38:29.493Z,384.40
2019-03-28T19:40:58.608Z,375.48
2019-03-28T19:43:27.612Z,415.52
2019-03-28T19:45:56.110Z,411.60
2019-03-28T19:48:24.629Z,386.35
2019-03-28T19:50:53.117Z,384.20
2019-03-28T19:53:21.616Z,422.90
2019-03-28T19:55:50.106Z,409.40
2019-03-28T19:58:18.627Z,422.45
2019-03-28T20:00:47.416Z,435.48
2019-03-28T20:03:15.951Z,449.52
2019-03-28T20:05:48.086Z,458.27
2019-03-28T20:08:16.426Z,454.45
2019-03-28T20:10:46.519Z,461.62
2019-03-28T20:13:15.042Z,482.00
2019-03-28T20:15:43.534Z,489.15
2019-03-28T20:18:12.125Z,487.27
2019-03-28T20:20:40.696Z,501.77
2019-03-28T20:23:09.254Z,479.45
2019-03-28T20:25:37.763Z,484.22
2019-03-28T20:28:06.787Z,448.93
2019-03-28T20:30:35.442Z,426.65
2019-03-28T20:33:04.460Z,427.15
2019-03-28T20:35:33.016Z,438.55
2019-03-28T20:38:01.517Z,447.25
2019-03-28T20:40:30.007Z,456.93
2019-03-28T20:42:58.617Z,452.07
2019-03-28T20:45:27.114Z,454.72
2019-03-28T20:47:55.614Z,443.60
2019-03-28T20:50:24.573Z,416.77
2019-03-28T20:52:53.057Z,415.25
2019-03-28T20:55:21.537Z,406.55
2019-03-28T20:57:50.152Z,384.85
2019-03-28T21:00:40.062Z,389.05
2019-03-28T21:03:08.817Z,375.18
2019-03-28T21:05:37.441Z,365.15
2019-03-28T21:08:06.186Z,360.23
2019-03-28T21:10:34.680Z,369.80
2019-03-28T21:13:03.203Z,386.77
2019-03-28T21:15:31.722Z,405.50
2019-03-28T21:18:00.973Z,377.35
2019-03-28T21:20:29.598Z,386.20
2019-03-28T21:22:58.087Z,402.73
2019-03-28T21:25:29.470Z,389.08
2019-03-28T21:27:56.839Z,382.70
2019-03-28T21:30:27.072Z,397.35
2019-03-28T21:32:57.665Z,387.80
2019-03-28T21:35:25.881Z,389.05
2019-03-28T21:37:54.502Z,372.52
2019-03-28T21:40:23.008Z,349.15
2019-03-28T21:42:51.562Z,345.37
2019-03-28T21:45:20.047Z,337.63
2019-03-28T21:47:48.585Z,346.18
2019-03-28T21:50:17.079Z,364.17
2019-03-28T21:52:45.572Z,362.42
2019-03-28T21:55:14.226Z,381.93
2019-03-28T21:57:42.840Z,373.73
2019-03-28T22:00:12.635Z,348.87
2019-03-28T22:02:41.139Z,341.65
2019-03-28T22:05:09.975Z,360.75
2019-03-28T22:07:38.496Z,358.73
2019-03-28T22:10:08.923Z,358.00
2019-03-28T22:12:37.622Z,359.12
2019-03-28T22:15:09.428Z,372.90
2019-03-28T22:20:07.643Z,363.82
2019-03-28T22:22:36.150Z,353.58
2019-03-28T22:25:06.723Z,351.67
2019-03-28T22:27:35.211Z,350.07
2019-03-28T22:30:04.108Z,344.18
2019-03-28T22:32:32.602Z,331.52
2019-03-28T22:35:01.119Z,321.52
2019-03-28T22:37:31.691Z,302.87
2019-03-28T22:40:00.487Z,303.98
2019-03-28T22:42:28.960Z,311.95
2019-03-28T22:44:57.493Z,306.77
2019-03-28T22:47:26.036Z,317.35
2019-03-28T22:49:54.525Z,308.20
2019-03-28T22:52:23.083Z,322.17
2019-03-28T22:54:51.522Z,332.70
2019-03-28T22:57:20.057Z,336.60
2019-03-28T22:59:48.563Z,340.12
2019-03-28T23:02:17.056Z,349.00
2019-03-28T23:04:45.626Z,353.18
2019-03-28T23:07:14.587Z,344.80
2019-03-28T23:09:43.339Z,347.65
2019-03-28T23:12:11.844Z,345.45
2019-03-28T23:14:40.335Z,357.77
2019-03-28T23:17:08.946Z,354.95
2019-03-28T23:19:37.436Z,358.38
2019-03-28T23:22:05.957Z,343.35
2019-03-28T23:24:34.465Z,338.80
2019-03-28T23:27:02.984Z,335.80
2019-03-28T23:29:31.490Z,320.42
2019-03-28T23:31:59.993Z,310.32
2019-03-28T23:34:28.486Z,296.87
2019-03-28T23:36:56.990Z,283.40
2019-03-28T23:39:25.531Z,267.43
2019-03-28T23:41:53.984Z,275.00
2019-03-28T23:44:22.503Z,272.37
2019-03-28T23:46:51.002Z,298.55
2019-03-28T23:49:19.577Z,339.65
2019-03-28T23:51:48.246Z,405.30
2019-03-28T23:54:16.744Z,513.70
2019-03-28T23:56:45.241Z,526.98
2019-03-28T23:59:13.749Z,534.83
